Airfield :
LOGIN :

Register | Disclaimer

   EN    FR    IT 

 










Legend :    VFR   Marginal VFR   IFR   Intensive IFR   Very Intensive IFR
Visi :
Ceiling :
>= 8 km
>= 3000ft
5 to 8 km
1000 to 3000 ft
1500m to 5 km
500 to 1000 ft
800 to 1500m
200 to 500 ft
< 800m
< 200 ft
Symbols :   Thunderstorms  Fog  Heavy snow  Heavy precipitations  Wind > 20 kt
SIGMETs :     Misc.  Thunderstorms  Icing  Turbulence  Mountain Waves  Volcanic Ashes






- Airport Elevation : 146 ft
- IATA code : RKE


EKRK - Roskilde Tune

CURRENT METAR :
  • 071450Z AUTO 22014G24KT 9999 BKN025/// 15/10 Q1016

EXPIRED METARs :
  • 071420Z AUTO 22013KT 9999 BKN026/// 14/10 Q1016
  • 071350Z AUTO 22018KT 9999 BKN022/// 14/10 Q1016
  • 071320Z AUTO 23017KT 9999 SCT020/// 15/10 Q1016
  • 071250Z AUTO 23017G27KT 9999 BKN020/// 15/10 Q1017
  • 071220Z AUTO 22019KT 9999 BKN020/// 15/10 Q1017

TAF TAF EKRK
Valid from the 07 at 15:00 until the 08 at 00:00 UTC


071420Z 0715/0724 21015KT 9999 BKN020
TEMPO 0715/0717 22018G28KT
TEMPO 0717/0724 22015G25KT



MET'MAP, your aeronautical weather chart ! - Copyright ORBIFLY December 2007 - Disclaimer

ORBIFLY MET'MAP TEAM :

Programming & Development : Alexandra Zaïnal
Original concept : Baudouin d'Aumeries
Technical & hardware support : Manuel Goepfert
Assistance : Marc-Olivier Méhu




SOURCES & CREDITS :

   NOAA